Condor Express — 9V5373 — position and weather

sailwx.info

Track history (hours):
 
Tides and Currents Weather Stations Pressure Air Temp Water Temp Dewpoint Dewpoint Depression Visibility Wind Speed Wind Dir Waves Ship Positions

Condor Express

Operator: Condor Marine Services

Last reported at 2019-Aug-18 09:11 UTC. Time now 2019-Aug-20 10:00 UTC.
Position N 37°03' E 123°33'.

Length 235 m; draft 7.8 m.

Type: Cargo ship. MMSI: 563014500.

Date/timePositionNaut miles runAvg speedWind from/ knotsBaromVisibWave heightAir tempDewpointWater temp
2019-Aug-18 09:11N 37°03' E 123°33'312.2
2019-Aug-18 08:58N 37°05' E 123°31'612.2
2019-Aug-18 08:27N 37°11' E 123°28'511.0
2019-Aug-18 08:00N 37°15' E 123°25'1111.1
2019-Aug-18 07:01N 37°25' E 123°18'611.6
2019-Aug-18 06:29N 37°28' E 123°12'612.6
2019-Aug-18 06:00N 37°31' E 123°06'713.8
2019-Aug-18 05:30N 37°35' E 122°58'713.6
2019-Aug-18 04:59N 37°38' E 122°50'612.2
2019-Aug-18 04:29N 37°38' E 122°43'612.2
2019-Aug-18 04:00N 37°37' E 122°36'612.4
2019-Aug-18 03:30N 37°35' E 122°28'612.1
2019-Aug-18 03:00N 37°32' E 122°21'510.6
2019-Aug-18 02:30N 37°30' E 122°15'  
Track history (hours):
 
Tides and Currents Weather Stations Pressure Air Temp Water Temp Dewpoint Dewpoint Depression Visibility Wind Speed Wind Dir Waves Ship Positions

Condor Express

Operator: Condor Marine Services

Last reported at 2019-Aug-18 09:11 UTC. Time now 2019-Aug-20 10:00 UTC.
Position N 37°03' E 123°33'.

Length 235 m; draft 7.8 m.

Type: Cargo ship. MMSI: 563014500.

Date/timePositionNaut miles runAvg speedWind from/ knotsBaromVisibWave heightAir tempDewpointWater temp
2019-Aug-18 09:11N 37°03' E 123°33'312.2
2019-Aug-18 08:58N 37°05' E 123°31'612.2
2019-Aug-18 08:27N 37°11' E 123°28'511.0
2019-Aug-18 08:00N 37°15' E 123°25'1111.1
2019-Aug-18 07:01N 37°25' E 123°18'611.6
2019-Aug-18 06:29N 37°28' E 123°12'612.6
2019-Aug-18 06:00N 37°31' E 123°06'713.8
2019-Aug-18 05:30N 37°35' E 122°58'713.6
2019-Aug-18 04:59N 37°38' E 122°50'612.2
2019-Aug-18 04:29N 37°38' E 122°43'612.2
2019-Aug-18 04:00N 37°37' E 122°36'612.4
2019-Aug-18 03:30N 37°35' E 122°28'612.1
2019-Aug-18 03:00N 37°32' E 122°21'510.6
2019-Aug-18 02:30N 37°30' E 122°15'  

Dump ship's entire track history